Time;durP1;ratioP1;P1;durP2;ratioP2;P2;SDS_P1;SDS_P2;PMS_P1;PMS_P2;Temp;Humidity;BMP_temperature;BMP_pressure;BME280_temperature;BME280_humidity;BME280_pressure;Samples;Min_cycle;Max_cycle;Signal;HPM_P1;HPM_P2
2023/07/13 00:01:53;;;;;;;;;1.67;1.67;;;;;-145.45;100.00;57426.63;5068723;28;45397;-68
2023/07/13 00:04:22;;;;;;;;;2.67;1.33;;;;;-145.45;100.00;57426.63;5076745;28;45240;-68
2023/07/13 00:06:48;;;;;;;;;2.00;1.67;;;;;-145.45;100.00;57426.63;5072619;28;45479;-69
2023/07/13 00:09:18;;;;;;;;;1.67;1.67;;;;;-145.45;100.00;57426.63;5075238;28;45515;-68
2023/07/13 00:11:44;;;;;;;;;2.00;2.00;;;;;-145.45;100.00;57426.63;5071656;28;45298;-69
2023/07/13 00:14:11;;;;;;;;;3.33;1.00;;;;;-145.45;100.00;57426.63;5073568;28;46588;-69
2023/07/13 00:16:38;;;;;;;;;3.00;2.00;;;;;-145.45;100.00;57426.63;5072095;27;45333;-69
2023/07/13 00:19:05;;;;;;;;;2.00;2.00;;;;;-145.45;100.00;57426.63;5072038;28;45433;-69
2023/07/13 00:21:30;;;;;;;;;3.00;2.00;;;;;-145.45;100.00;57426.63;5070833;28;45261;-69
2023/07/13 00:23:55;;;;;;;;;2.00;2.00;;;;;-145.45;100.00;57426.63;5070978;28;45592;-69
2023/07/13 00:26:21;;;;;;;;;1.00;1.00;;;;;-145.45;100.00;57426.63;5070914;28;45263;-69
2023/07/13 00:28:47;;;;;;;;;2.33;2.33;;;;;-145.45;100.00;57426.63;5075375;28;45388;-68
2023/07/13 00:31:14;;;;;;;;;3.00;1.67;;;;;-145.45;100.00;57426.63;5069973;27;45216;-69
2023/07/13 00:33:40;;;;;;;;;2.67;2.67;;;;;-145.45;100.00;57426.63;5075817;28;45577;-69
2023/07/13 00:36:05;;;;;;;;;3.33;3.33;;;;;-145.45;100.00;57426.63;5072446;28;45455;-68
2023/07/13 00:38:31;;;;;;;;;2.67;2.67;;;;;-145.45;100.00;57426.63;5077994;28;45249;-68
2023/07/13 00:40:56;;;;;;;;;3.67;2.67;;;;;-145.45;100.00;57426.63;5068348;28;45295;-68
2023/07/13 00:43:23;;;;;;;;;3.33;2.33;;;;;-145.45;100.00;57426.63;5068209;28;45392;-68
2023/07/13 00:45:49;;;;;;;;;2.33;2.33;;;;;-145.45;100.00;57426.63;5068849;28;45363;-68
2023/07/13 00:48:18;;;;;;;;;2.00;1.67;;;;;-145.45;100.00;57426.63;5069819;28;45525;-68
2023/07/13 00:50:46;;;;;;;;;1.67;1.00;;;;;-145.45;100.00;57426.63;5079302;27;45681;-68
2023/07/13 00:53:13;;;;;;;;;2.67;2.33;;;;;-145.45;100.00;57426.63;5076345;28;45381;-68
2023/07/13 00:55:39;;;;;;;;;4.33;2.00;;;;;-145.45;100.00;57426.63;5078832;28;45599;-69
2023/07/13 00:58:06;;;;;;;;;3.33;2.67;;;;;-145.45;100.00;57426.63;5077396;28;45322;-68
2023/07/13 01:00:34;;;;;;;;;2.67;2.67;;;;;-145.45;100.00;57426.63;5078976;28;45582;-69
2023/07/13 01:03:01;;;;;;;;;2.00;2.00;;;;;-145.45;100.00;57426.63;5066097;28;46316;-69
2023/07/13 01:05:27;;;;;;;;;3.00;3.00;;;;;-145.45;100.00;57426.63;5071684;28;45413;-68
2023/07/13 01:07:52;;;;;;;;;3.00;3.00;;;;;-145.45;100.00;57426.63;5070607;28;45620;-69
2023/07/13 01:10:22;;;;;;;;;3.33;3.33;;;;;-145.45;100.00;57426.63;5074014;28;45779;-69
2023/07/13 01:12:47;;;;;;;;;2.00;2.00;;;;;-145.45;100.00;57426.63;5072570;28;45379;-69
2023/07/13 01:15:38;;;;;;;;;2.67;2.67;;;;;-145.45;100.00;57426.63;5072962;28;45342;-69
2023/07/13 01:18:24;;;;;;;;;2.67;1.67;;;;;-145.45;100.00;57426.63;5075023;28;45457;-68
2023/07/13 01:21:00;;;;;;;;;3.33;2.33;;;;;-145.45;100.00;57426.63;5065879;28;45410;-69
2023/07/13 01:23:27;;;;;;;;;3.00;2.33;;;;;-145.45;100.00;57426.63;5073859;28;47170;-69
2023/07/13 01:25:52;;;;;;;;;6.00;3.00;;;;;-145.45;100.00;57426.63;5073240;27;45398;-69
2023/07/13 01:28:18;;;;;;;;;2.00;2.00;;;;;-145.45;100.00;57426.63;5074586;28;45579;-70
2023/07/13 01:30:45;;;;;;;;;1.67;1.67;;;;;-145.45;100.00;57426.63;5066870;28;45177;-69
2023/07/13 01:33:16;;;;;;;;;2.50;2.50;;;;;-145.45;100.00;57426.63;5074845;28;45475;-69
2023/07/13 01:35:42;;;;;;;;;2.67;2.33;;;;;-145.45;100.00;57426.63;5073074;28;45275;-69
2023/07/13 01:38:08;;;;;;;;;4.67;2.00;;;;;-145.45;100.00;57426.63;5078435;28;45407;-69
2023/07/13 01:40:34;;;;;;;;;4.00;2.67;;;;;-145.45;100.00;57426.63;5078971;28;45260;-70
2023/07/13 01:43:01;;;;;;;;;3.00;2.33;;;;;-145.45;100.00;57426.63;5078437;28;45385;-70
2023/07/13 01:45:26;;;;;;;;;1.00;1.00;;;;;-145.45;100.00;57426.63;5081976;27;45314;-70
2023/07/13 01:47:51;;;;;;;;;2.00;2.00;;;;;-145.45;100.00;57426.63;5078555;28;45485;-70
2023/07/13 01:50:17;;;;;;;;;2.67;2.67;;;;;-145.45;100.00;57426.63;5079012;28;45464;-70
2023/07/13 01:52:42;;;;;;;;;3.33;2.00;;;;;-145.45;100.00;57426.63;5071123;28;45373;-70
2023/07/13 01:55:08;;;;;;;;;3.67;2.33;;;;;-145.45;100.00;57426.63;5081242;28;45302;-70
2023/07/13 01:57:33;;;;;;;;;3.00;1.00;;;;;-145.45;100.00;57426.63;5076953;27;45343;-69
2023/07/13 01:59:58;;;;;;;;;2.67;2.67;;;;;-145.45;100.00;57426.63;5080182;28;45259;-70
2023/07/13 02:02:24;;;;;;;;;1.33;1.33;;;;;-145.45;100.00;57426.63;5079493;28;45847;-69
2023/07/13 02:04:49;;;;;;;;;5.00;2.67;;;;;-145.45;100.00;57426.63;5080393;28;45281;-70
2023/07/13 02:07:15;;;;;;;;;2.67;1.67;;;;;-145.45;100.00;57426.63;5079172;28;45535;-68
2023/07/13 02:09:41;;;;;;;;;3.00;2.00;;;;;-145.45;100.00;57426.63;5081275;28;45462;-69
2023/07/13 02:12:07;;;;;;;;;3.33;3.33;;;;;-145.45;100.00;57426.63;5076103;28;46397;-69
2023/07/13 02:14:32;;;;;;;;;3.67;2.33;;;;;-145.45;100.00;57426.63;5076645;28;45296;-69
2023/07/13 02:16:58;;;;;;;;;3.67;2.00;;;;;-145.45;100.00;57426.63;5066937;28;45744;-68
2023/07/13 02:19:23;;;;;;;;;1.00;1.00;;;;;-145.45;100.00;57426.63;5074695;28;46510;-68
2023/07/13 02:21:48;;;;;;;;;3.33;1.67;;;;;-145.45;100.00;57426.63;5065811;28;45279;-69
2023/07/13 02:24:17;;;;;;;;;1.00;1.00;;;;;-145.45;100.00;57426.63;5078071;28;45576;-68
2023/07/13 02:26:44;;;;;;;;;2.00;2.00;;;;;-145.45;100.00;57426.63;5075782;28;45532;-68
2023/07/13 02:29:09;;;;;;;;;2.33;2.33;;;;;-145.45;100.00;57426.63;5076074;28;45418;-69
2023/07/13 02:31:35;;;;;;;;;3.00;1.67;;;;;-145.45;100.00;57426.63;5076056;27;45436;-68
2023/07/13 02:34:02;;;;;;;;;1.00;1.00;;;;;-145.45;100.00;57426.63;5076803;28;45564;-68
2023/07/13 02:36:28;;;;;;;;;2.67;2.00;;;;;-145.45;100.00;57426.63;5075946;28;45306;-69
2023/07/13 02:38:53;;;;;;;;;1.33;1.33;;;;;-145.45;100.00;57426.63;5079582;28;45257;-68
2023/07/13 02:41:18;;;;;;;;;2.33;2.33;;;;;-145.45;100.00;57426.63;5068342;28;53387;-69
2023/07/13 02:43:44;;;;;;;;;3.67;2.00;;;;;-145.45;100.00;57426.63;5071894;28;45373;-70
2023/07/13 02:46:09;;;;;;;;;2.00;2.00;;;;;-145.45;100.00;57426.63;5068647;28;45150;-69
2023/07/13 02:48:36;;;;;;;;;3.33;1.67;;;;;-145.45;100.00;57426.63;5073593;28;45192;-69
2023/07/13 02:51:02;;;;;;;;;0.67;0.67;;;;;-145.45;100.00;57426.63;5068230;28;45284;-69
2023/07/13 02:53:27;;;;;;;;;2.33;1.00;;;;;-145.45;100.00;57426.63;5072555;28;45355;-69
2023/07/13 02:55:52;;;;;;;;;3.00;1.67;;;;;-145.45;100.00;57426.63;5078708;28;45262;-68
2023/07/13 02:58:18;;;;;;;;;2.00;2.00;;;;;-145.45;100.00;57426.63;5068739;28;46853;-69
2023/07/13 03:00:46;;;;;;;;;0.67;0.67;;;;;-145.45;100.00;57426.63;5077521;28;45476;-69
2023/07/13 03:03:12;;;;;;;;;2.00;1.00;;;;;-145.45;100.00;57426.63;5071968;28;45430;-69
2023/07/13 03:05:40;;;;;;;;;3.00;1.33;;;;;-145.45;100.00;57426.63;5076143;28;45264;-69
2023/07/13 03:08:06;;;;;;;;;2.33;1.67;;;;;-145.45;100.00;57426.63;5072093;28;45456;-69
2023/07/13 03:10:32;;;;;;;;;3.00;3.00;;;;;-145.45;100.00;57426.63;5077553;28;47078;-68
2023/07/13 03:12:57;;;;;;;;;0.67;0.67;;;;;-145.45;100.00;57426.63;5079590;27;45330;-69
2023/07/13 03:15:23;;;;;;;;;1.67;1.00;;;;;-145.45;100.00;57426.63;5077406;28;45465;-69
2023/07/13 03:17:49;;;;;;;;;3.33;2.00;;;;;-145.45;100.00;57426.63;5068241;28;45485;-69
2023/07/13 03:20:14;;;;;;;;;1.67;0.67;;;;;-145.45;100.00;57426.63;5079505;28;46205;-68
2023/07/13 03:22:40;;;;;;;;;4.00;2.67;;;;;-145.45;100.00;57426.63;5076936;28;45244;-69
2023/07/13 03:25:05;;;;;;;;;3.67;0.67;;;;;-145.45;100.00;57426.63;5074561;28;45890;-69
2023/07/13 03:27:31;;;;;;;;;0.67;0.67;;;;;-145.45;100.00;57426.63;5079769;28;45599;-68
2023/07/13 03:29:56;;;;;;;;;2.00;1.67;;;;;-145.45;100.00;57426.63;5079134;28;51651;-68
2023/07/13 03:32:21;;;;;;;;;1.33;0.33;;;;;-145.45;100.00;57426.63;5079436;27;45221;-68
2023/07/13 03:34:47;;;;;;;;;4.00;1.67;;;;;-145.45;100.00;57426.63;5078216;28;45203;-69
2023/07/13 03:37:12;;;;;;;;;2.00;1.00;;;;;-145.45;100.00;57426.63;5073423;28;45452;-68
2023/07/13 03:39:37;;;;;;;;;2.00;2.00;;;;;-145.45;100.00;57426.63;5076360;28;47834;-69
2023/07/13 03:42:03;;;;;;;;;1.00;1.00;;;;;-145.45;100.00;57426.63;5075906;27;45201;-68
2023/07/13 03:44:28;;;;;;;;;0.67;0.67;;;;;-145.45;100.00;57426.63;5078998;28;45396;-69
2023/07/13 03:46:54;;;;;;;;;3.00;2.00;;;;;-145.45;100.00;57426.63;5074514;28;45472;-68
2023/07/13 03:49:19;;;;;;;;;1.33;1.33;;;;;-145.45;100.00;57426.63;5079286;28;48338;-70
2023/07/13 03:51:44;;;;;;;;;3.67;2.00;;;;;-145.45;100.00;57426.63;5072229;27;45207;-68
2023/07/13 03:54:10;;;;;;;;;2.33;2.33;;;;;-145.45;100.00;57426.63;5076614;28;45345;-69
2023/07/13 03:56:35;;;;;;;;;2.33;0.67;;;;;-145.45;100.00;57426.63;5072370;28;45356;-69
2023/07/13 03:59:02;;;;;;;;;2.67;1.00;;;;;-145.45;100.00;57426.63;5073249;28;50860;-69
2023/07/13 04:01:27;;;;;;;;;2.00;2.00;;;;;-145.45;100.00;57426.63;5071539;28;45406;-69
2023/07/13 04:03:53;;;;;;;;;3.00;1.33;;;;;-145.45;100.00;57426.63;5074875;28;45358;-68
2023/07/13 04:06:22;;;;;;;;;2.67;1.67;;;;;-145.45;100.00;57426.63;5070207;28;45377;-69
2023/07/13 04:08:53;;;;;;;;;1.67;1.67;;;;;-145.45;100.00;57426.63;5072117;28;45376;-69
2023/07/13 04:11:20;;;;;;;;;1.67;1.00;;;;;-145.45;100.00;57426.63;5068846;28;45338;-69
2023/07/13 04:13:47;;;;;;;;;1.67;1.67;;;;;-145.45;100.00;57426.63;5074339;28;45432;-69
2023/07/13 04:16:14;;;;;;;;;4.00;2.67;;;;;-145.45;100.00;57426.63;5068132;28;45642;-69
2023/07/13 04:18:39;;;;;;;;;2.00;2.00;;;;;-145.45;100.00;57426.63;5070077;28;45403;-69
2023/07/13 04:21:04;;;;;;;;;2.00;2.00;;;;;-145.45;100.00;57426.63;5074573;28;46230;-69
2023/07/13 04:23:30;;;;;;;;;2.00;2.00;;;;;-145.45;100.00;57426.63;5073426;28;45598;-70
2023/07/13 04:25:55;;;;;;;;;2.67;2.67;;;;;-145.45;100.00;57426.63;5065377;28;45391;-70
2023/07/13 04:28:22;;;;;;;;;2.67;1.00;;;;;-145.45;100.00;57426.63;5069278;28;49769;-70
2023/07/13 04:30:48;;;;;;;;;3.67;1.67;;;;;-145.45;100.00;57426.63;5064555;28;45256;-70
2023/07/13 04:33:14;;;;;;;;;1.50;1.50;;;;;-145.45;100.00;57426.63;5070422;28;45324;-70
2023/07/13 04:35:39;;;;;;;;;5.00;3.00;;;;;-145.45;100.00;57426.63;5071033;28;45299;-70
2023/07/13 04:38:04;;;;;;;;;3.33;2.33;;;;;-145.45;100.00;57426.63;5067653;28;57324;-71
2023/07/13 04:40:30;;;;;;;;;3.00;2.67;;;;;-145.45;100.00;57426.63;5060462;28;45379;-70
2023/07/13 04:42:56;;;;;;;;;2.67;2.00;;;;;-145.45;100.00;57426.63;5066450;28;45221;-70
2023/07/13 04:45:23;;;;;;;;;1.33;1.33;;;;;-145.45;100.00;57426.63;5069520;28;45484;-70
2023/07/13 04:47:49;;;;;;;;;3.67;2.00;;;;;-145.45;100.00;57426.63;5065106;28;45542;-71
2023/07/13 04:50:20;;;;;;;;;2.00;2.00;;;;;-145.45;100.00;57426.63;5068470;28;45262;-70
2023/07/13 04:52:46;;;;;;;;;5.00;3.00;;;;;-145.45;100.00;57426.63;5067183;28;45276;-70
2023/07/13 04:55:11;;;;;;;;;5.00;4.00;;;;;-145.45;100.00;57426.63;5071677;28;45727;-71
2023/07/13 04:57:37;;;;;;;;;3.67;3.67;;;;;-145.45;100.00;57426.63;5064479;28;46519;-68
2023/07/13 05:00:05;;;;;;;;;3.00;3.00;;;;;-145.45;100.00;57426.63;5076680;28;45290;-71
2023/07/13 05:02:31;;;;;;;;;3.00;2.33;;;;;-145.45;100.00;57426.63;5075258;28;45391;-70
2023/07/13 05:04:57;;;;;;;;;5.00;3.00;;;;;-145.45;100.00;57426.63;5076600;28;45348;-71
2023/07/13 05:07:22;;;;;;;;;2.67;2.67;;;;;-145.45;100.00;57426.63;5075621;28;45305;-70
2023/07/13 05:09:48;;;;;;;;;1.67;1.67;;;;;-145.45;100.00;57426.63;5077487;27;45320;-70
2023/07/13 05:12:13;;;;;;;;;3.00;1.33;;;;;-145.45;100.00;57426.63;5066779;28;45640;-70
2023/07/13 05:14:38;;;;;;;;;1.00;1.00;;;;;-145.45;100.00;57426.63;5073732;28;45561;-70
2023/07/13 05:17:04;;;;;;;;;4.00;1.33;;;;;-145.45;100.00;57426.63;5066127;28;54483;-70
2023/07/13 05:19:29;;;;;;;;;3.00;1.67;;;;;-145.45;100.00;57426.63;5078075;27;45338;-69
2023/07/13 05:21:55;;;;;;;;;0.67;0.67;;;;;-145.45;100.00;57426.63;5076333;28;45395;-69
2023/07/13 05:24:20;;;;;;;;;3.67;1.67;;;;;-145.45;100.00;57426.63;5075889;27;45445;-70
2023/07/13 05:26:45;;;;;;;;;2.67;2.00;;;;;-145.45;100.00;57426.63;5077710;28;45394;-71
2023/07/13 05:29:11;;;;;;;;;2.00;2.00;;;;;-145.45;100.00;57426.63;5077066;28;45372;-71
2023/07/13 05:31:37;;;;;;;;;2.00;1.67;;;;;-145.45;100.00;57426.63;5076669;28;45272;-71
2023/07/13 05:34:02;;;;;;;;;2.00;2.00;;;;;-145.45;100.00;57426.63;5077821;27;45368;-71
2023/07/13 05:36:27;;;;;;;;;1.67;1.67;;;;;-145.45;100.00;57426.63;5066549;28;49541;-71
2023/07/13 05:38:53;;;;;;;;;2.00;2.00;;;;;-145.45;100.00;57426.63;5073007;28;45247;-70
2023/07/13 05:41:18;;;;;;;;;1.33;1.00;;;;;-145.45;100.00;57426.63;5067843;28;47647;-71
2023/07/13 05:43:43;;;;;;;;;3.67;3.67;;;;;-145.45;100.00;57426.63;5071519;28;45505;-68
2023/07/13 05:46:09;;;;;;;;;3.00;2.00;;;;;-145.45;100.00;57426.63;5068202;28;46184;-71
2023/07/13 05:48:34;;;;;;;;;4.67;2.00;;;;;-145.45;100.00;57426.63;5069223;28;45371;-71
2023/07/13 05:51:00;;;;;;;;;3.67;2.67;;;;;-145.45;100.00;57426.63;5075923;28;45432;-68
2023/07/13 05:53:26;;;;;;;;;2.67;2.00;;;;;-145.45;100.00;57426.63;5068813;28;45333;-70
2023/07/13 05:55:54;;;;;;;;;7.00;2.67;;;;;-145.45;100.00;57426.63;5076271;28;45444;-68
2023/07/13 05:58:20;;;;;;;;;2.00;2.00;;;;;-145.45;100.00;57426.63;5075723;28;45493;-68
2023/07/13 06:00:47;;;;;;;;;2.33;2.00;;;;;-145.45;100.00;57426.63;5057768;28;45444;-68
2023/07/13 06:03:12;;;;;;;;;1.33;1.33;;;;;-145.45;100.00;57426.63;5070100;28;45409;-69
2023/07/13 06:05:38;;;;;;;;;1.67;1.67;;;;;-145.45;100.00;57426.63;5072002;28;50443;-68
2023/07/13 06:08:04;;;;;;;;;2.67;1.00;;;;;-145.45;100.00;57426.63;5066730;28;45422;-69
2023/07/13 06:10:33;;;;;;;;;2.00;1.67;;;;;-145.45;100.00;57426.63;5074464;28;45229;-69
2023/07/13 06:12:58;;;;;;;;;3.67;2.33;;;;;-145.45;100.00;57426.63;5069246;28;45268;-68
2023/07/13 06:15:23;;;;;;;;;2.00;1.67;;;;;-145.45;100.00;57426.63;5076941;28;46182;-68
2023/07/13 06:17:49;;;;;;;;;5.00;2.00;;;;;-145.45;100.00;57426.63;5067926;28;45440;-67
2023/07/13 06:20:14;;;;;;;;;2.67;1.67;;;;;-145.45;100.00;57426.63;5071959;28;50198;-68
2023/07/13 06:22:39;;;;;;;;;3.00;2.67;;;;;-145.45;100.00;57426.63;5066703;28;45443;-70
2023/07/13 06:25:05;;;;;;;;;4.67;2.00;;;;;-145.45;100.00;57426.63;5079227;28;55075;-69
2023/07/13 06:27:31;;;;;;;;;2.33;1.67;;;;;-145.45;100.00;57426.63;5071245;28;45756;-70
2023/07/13 06:29:56;;;;;;;;;6.67;3.67;;;;;-145.45;100.00;57426.63;5073650;28;45257;-70
2023/07/13 06:32:21;;;;;;;;;5.00;3.00;;;;;-145.45;100.00;57426.63;5074746;28;45652;-70
2023/07/13 06:34:47;;;;;;;;;10.00;9.00;;;;;-145.45;100.00;57426.63;5078420;28;45474;-71
2023/07/13 06:37:12;;;;;;;;;2.67;1.33;;;;;-145.45;100.00;57426.63;5068648;28;45284;-69
2023/07/13 06:39:37;;;;;;;;;2.67;2.67;;;;;-145.45;100.00;57426.63;5079155;28;45175;-73
2023/07/13 06:42:04;;;;;;;;;3.33;2.33;;;;;-145.45;100.00;57426.63;5068439;28;45199;-73
2023/07/13 06:44:29;;;;;;;;;4.33;3.00;;;;;-145.45;100.00;57426.63;5075033;28;45604;-71
2023/07/13 06:46:55;;;;;;;;;1.67;1.67;;;;;-145.45;100.00;57426.63;5069028;28;45244;-72
2023/07/13 06:49:20;;;;;;;;;3.33;2.00;;;;;-145.45;100.00;57426.63;5078224;27;45474;-74
2023/07/13 06:51:45;;;;;;;;;4.67;3.00;;;;;-145.45;100.00;57426.63;5071549;28;46427;-73
2023/07/13 06:54:11;;;;;;;;;4.00;4.00;;;;;-145.45;100.00;57426.63;5074380;28;53054;-73
2023/07/13 06:56:36;;;;;;;;;2.67;2.00;;;;;-145.45;100.00;57426.63;5076546;28;45268;-72
2023/07/13 06:59:01;;;;;;;;;4.00;3.00;;;;;-145.45;100.00;57426.63;5079106;28;45315;-73
2023/07/13 07:01:27;;;;;;;;;3.00;3.00;;;;;-145.45;100.00;57426.63;5072250;28;45271;-72
2023/07/13 07:03:52;;;;;;;;;2.00;2.00;;;;;-145.45;100.00;57426.63;5074929;28;46144;-72
2023/07/13 07:06:20;;;;;;;;;5.33;4.00;;;;;-145.45;100.00;57426.63;5074477;28;45435;-73
2023/07/13 07:08:46;;;;;;;;;2.00;1.67;;;;;-145.45;100.00;57426.63;5079720;28;45463;-69
2023/07/13 07:11:13;;;;;;;;;1.67;1.67;;;;;-145.45;100.00;57426.63;5077390;28;45359;-69
2023/07/13 07:13:38;;;;;;;;;1.67;1.67;;;;;-145.45;100.00;57426.63;5074343;28;47811;-69
2023/07/13 07:16:03;;;;;;;;;2.00;2.00;;;;;-145.45;100.00;57426.63;5078552;27;45230;-69
2023/07/13 07:18:29;;;;;;;;;2.00;2.00;;;;;-145.45;100.00;57426.63;5076206;28;45376;-69
2023/07/13 07:20:54;;;;;;;;;5.67;2.67;;;;;-145.45;100.00;57426.63;5077248;28;45412;-68
2023/07/13 07:23:19;;;;;;;;;3.33;2.33;;;;;-145.45;100.00;57426.63;5077231;28;47281;-69
2023/07/13 07:25:45;;;;;;;;;3.00;3.00;;;;;-145.45;100.00;57426.63;5065892;28;45260;-70
2023/07/13 07:28:12;;;;;;;;;3.00;2.00;;;;;-145.45;100.00;57426.63;5073266;28;45748;-69
2023/07/13 07:30:42;;;;;;;;;1.67;1.67;;;;;-145.45;100.00;57426.63;5073337;28;45442;-69
2023/07/13 07:33:07;;;;;;;;;2.00;2.00;;;;;-145.45;100.00;57426.63;5071987;28;46496;-73
2023/07/13 07:35:32;;;;;;;;;3.00;3.00;;;;;-145.45;100.00;57426.63;5073080;28;45280;-70
2023/07/13 07:37:58;;;;;;;;;4.00;4.00;;;;;-145.45;100.00;57426.63;5072600;28;45245;-72
2023/07/13 07:40:23;;;;;;;;;2.67;2.67;;;;;-145.45;100.00;57426.63;5070895;28;55454;-72
2023/07/13 07:42:48;;;;;;;;;3.00;2.33;;;;;-145.45;100.00;57426.63;5070987;28;45068;-75
2023/07/13 07:45:14;;;;;;;;;4.67;3.33;;;;;-145.45;100.00;57426.63;5073271;28;45841;-71
2023/07/13 07:47:39;;;;;;;;;4.00;2.67;;;;;-145.45;100.00;57426.63;5070627;28;45297;-70
2023/07/13 07:50:05;;;;;;;;;3.00;1.67;;;;;-145.45;100.00;57426.63;5072997;27;50356;-69
2023/07/13 07:52:31;;;;;;;;;2.00;2.00;;;;;-145.45;100.00;57426.63;5069818;28;46758;-69
2023/07/13 07:54:56;;;;;;;;;3.67;2.00;;;;;-145.45;100.00;57426.63;5077909;28;45292;-69
2023/07/13 07:57:21;;;;;;;;;5.00;3.00;;;;;-145.45;100.00;57426.63;5074363;27;45509;-70
2023/07/13 07:59:48;;;;;;;;;5.33;3.00;;;;;-145.45;100.00;57426.63;5077349;28;45266;-70
2023/07/13 08:02:13;;;;;;;;;2.00;2.00;;;;;-145.45;100.00;57426.63;5071619;28;45717;-69
2023/07/13 08:04:39;;;;;;;;;3.33;3.00;;;;;-145.45;100.00;57426.63;5077048;28;45485;-69
2023/07/13 08:07:04;;;;;;;;;5.33;3.00;;;;;-145.45;100.00;57426.63;5067355;28;45278;-70
2023/07/13 08:09:30;;;;;;;;;2.00;2.00;;;;;-145.45;100.00;57426.63;5074777;28;45432;-70
2023/07/13 08:11:55;;;;;;;;;4.00;2.50;;;;;-145.45;100.00;57426.63;5072462;28;46635;-69
2023/07/13 08:14:20;;;;;;;;;2.25;1.00;;;;;-145.45;100.00;57426.63;5070337;28;57936;-70
2023/07/13 08:16:46;;;;;;;;;2.00;2.00;;;;;-145.45;100.00;57426.63;5072567;28;45419;-69
2023/07/13 08:19:11;;;;;;;;;2.25;2.25;;;;;-145.45;100.00;57426.63;5070253;28;45600;-69
2023/07/13 08:21:37;;;;;;;;;3.50;2.25;;;;;-145.45;100.00;57426.63;5069056;28;45424;-69
2023/07/13 08:24:03;;;;;;;;;4.25;1.50;;;;;-145.45;100.00;57426.63;5069204;28;45393;-70
2023/07/13 08:26:28;;;;;;;;;3.00;1.25;;;;;-145.45;100.00;57426.63;5067975;28;45292;-69
2023/07/13 08:28:53;;;;;;;;;0.00;0.00;;;;;-145.45;100.00;57426.63;5068022;27;45379;-70
2023/07/13 08:31:19;;;;;;;;;2.00;1.25;;;;;-145.45;100.00;57426.63;5065730;28;46505;-70
2023/07/13 08:33:44;;;;;;;;;2.00;2.00;;;;;-145.45;100.00;57426.63;5072444;28;45180;-69
2023/07/13 08:36:10;;;;;;;;;1.25;1.25;;;;;-145.45;100.00;57426.63;5074779;28;45307;-70
2023/07/13 08:38:35;;;;;;;;;1.75;0.50;;;;;-145.45;100.00;57426.63;5077606;28;45501;-69
2023/07/13 08:41:10;;;;;;;;;3.00;2.25;;;;;-145.45;100.00;57426.63;5075722;28;46905;-69
2023/07/13 08:43:37;;;;;;;;;2.00;2.00;;;;;-145.45;100.00;57426.63;5077197;28;45542;-69
2023/07/13 08:46:18;;;;;;;;;3.75;1.50;;;;;-145.45;100.00;57426.63;5074606;28;45361;-69
2023/07/13 08:48:57;;;;;;;;;3.25;2.25;;;;;-145.45;100.00;57426.63;5077583;28;45219;-69
2023/07/13 08:51:35;;;;;;;;;1.00;1.00;;;;;-145.45;100.00;57426.63;5076209;27;45264;-70
2023/07/13 08:54:10;;;;;;;;;1.00;1.00;;;;;-145.45;100.00;57426.63;5077705;28;45444;-70
2023/07/13 08:56:35;;;;;;;;;0.25;0.25;;;;;-145.45;100.00;57426.63;5076421;28;45338;-70
2023/07/13 08:59:10;;;;;;;;;1.25;1.25;;;;;-145.45;100.00;57426.63;5077363;28;48987;-70
2023/07/13 09:02:09;;;;;;;;;1.00;1.00;;;;;-145.45;100.00;57426.63;5075228;28;45457;-70
2023/07/13 09:05:10;;;;;;;;;1.00;0.25;;;;;-145.45;100.00;57426.63;5073075;28;45236;-70
2023/07/13 09:08:01;;;;;;;;;0.75;0.75;;;;;-145.45;100.00;57426.63;5073987;28;45587;-70
2023/07/13 09:10:42;;;;;;;;;2.00;2.00;;;;;-145.45;100.00;57426.63;5072117;28;45481;-70
2023/07/13 09:13:20;;;;;;;;;2.25;1.00;;;;;-145.45;100.00;57426.63;5074365;28;45424;-70
2023/07/13 09:15:48;;;;;;;;;4.75;2.00;;;;;-145.45;100.00;57426.63;5066825;28;45399;-68
2023/07/13 09:18:21;;;;;;;;;2.75;1.25;;;;;-145.45;100.00;57426.63;5074987;28;45337;-70
2023/07/13 09:21:03;;;;;;;;;3.00;2.00;;;;;-145.45;100.00;57426.63;5072521;28;45678;-68
2023/07/13 09:23:30;;;;;;;;;2.00;2.00;;;;;-145.45;100.00;57426.63;5071959;28;46771;-68
2023/07/13 09:26:10;;;;;;;;;1.00;1.00;;;;;-145.45;100.00;57426.63;5064290;28;45300;-69
2023/07/13 09:28:41;;;;;;;;;1.00;1.00;;;;;-145.45;100.00;57426.63;5066958;28;45461;-70
2023/07/13 09:31:23;;;;;;;;;2.00;2.00;;;;;-145.45;100.00;57426.63;5064725;28;44799;-69
2023/07/13 09:33:50;;;;;;;;;2.00;2.00;;;;;-145.45;100.00;57426.63;5076671;28;46499;-69
2023/07/13 09:36:18;;;;;;;;;5.50;1.25;;;;;-145.45;100.00;57426.63;5068376;28;45152;-69
2023/07/13 09:38:45;;;;;;;;;2.00;2.00;;;;;-145.45;100.00;57426.63;5071663;28;45446;-68
2023/07/13 09:41:28;;;;;;;;;3.25;2.00;;;;;-145.45;100.00;57426.63;5074495;28;46302;-68
2023/07/13 09:44:02;;;;;;;;;1.50;1.50;;;;;-145.45;100.00;57426.63;5076089;28;47045;-69
2023/07/13 09:46:27;;;;;;;;;1.25;1.25;;;;;-145.45;100.00;57426.63;5075833;28;45385;-69
2023/07/13 09:48:52;;;;;;;;;0.00;0.00;;;;;-145.45;100.00;57426.63;5081491;28;45485;-70
2023/07/13 09:51:18;;;;;;;;;1.25;1.25;;;;;-145.45;100.00;57426.63;5073640;27;46540;-69
2023/07/13 09:53:44;;;;;;;;;1.00;1.00;;;;;-145.45;100.00;57426.63;5080426;28;46474;-70
2023/07/13 09:56:25;;;;;;;;;2.50;1.00;;;;;-145.45;100.00;57426.63;5078316;28;45378;-69
2023/07/13 09:58:52;;;;;;;;;3.00;0.75;;;;;-145.45;100.00;57426.63;5081543;27;45377;-69
2023/07/13 10:01:32;;;;;;;;;0.50;0.50;;;;;-145.45;100.00;57426.63;5075347;28;45303;-69
2023/07/13 10:03:58;;;;;;;;;2.00;2.00;;;;;-145.45;100.00;57426.63;5078834;28;46548;-69
2023/07/13 10:06:23;;;;;;;;;2.00;2.00;;;;;-145.45;100.00;57426.63;5073331;28;45250;-73
2023/07/13 10:08:52;;;;;;;;;1.75;1.75;;;;;-145.45;100.00;57426.63;5078956;28;45254;-71
2023/07/13 10:11:29;;;;;;;;;2.50;1.00;;;;;-145.45;100.00;57426.63;5072346;28;45413;-69
2023/07/13 10:13:59;;;;;;;;;1.75;1.75;;;;;-145.45;100.00;57426.63;5079095;28;46122;-70
2023/07/13 10:16:32;;;;;;;;;2.50;2.50;;;;;-145.45;100.00;57426.63;5074977;27;45209;-68
2023/07/13 10:19:03;;;;;;;;;5.00;3.00;;;;;-145.45;100.00;57426.63;5080659;28;45323;-68
2023/07/13 10:21:33;;;;;;;;;2.00;2.00;;;;;-145.45;100.00;57426.63;5081340;28;45402;-68
2023/07/13 10:24:24;;;;;;;;;2.00;2.00;;;;;-145.45;100.00;57426.63;5076392;28;45621;-68
2023/07/13 10:27:18;;;;;;;;;4.25;2.00;;;;;-145.45;100.00;57426.63;5078038;28;45331;-68
2023/07/13 10:30:09;;;;;;;;;2.50;1.00;;;;;-145.45;100.00;57426.63;5076331;28;45283;-68
2023/07/13 10:32:35;;;;;;;;;2.00;2.00;;;;;-145.45;100.00;57426.63;5080916;28;45612;-68
2023/07/13 10:35:02;;;;;;;;;1.50;1.50;;;;;-145.45;100.00;57426.63;5081106;28;45322;-68
2023/07/13 10:37:37;;;;;;;;;1.75;1.75;;;;;-145.45;100.00;57426.63;5080714;28;45267;-68
2023/07/13 10:40:05;;;;;;;;;2.25;2.25;;;;;-145.45;100.00;57426.63;5080493;28;45438;-68
2023/07/13 10:42:37;;;;;;;;;1.25;0.25;;;;;-145.45;100.00;57426.63;5080450;28;45540;-68
2023/07/13 10:45:13;;;;;;;;;1.50;1.50;;;;;-145.45;100.00;57426.63;5080686;28;46084;-68
2023/07/13 10:47:39;;;;;;;;;1.75;1.75;;;;;-145.45;100.00;57426.63;5079166;28;45515;-69
2023/07/13 10:50:06;;;;;;;;;2.00;1.00;;;;;-145.45;100.00;57426.63;5075159;28;45492;-68
2023/07/13 10:52:46;;;;;;;;;2.75;1.25;;;;;-145.45;100.00;57426.63;5069573;28;45561;-68
2023/07/13 10:55:31;;;;;;;;;2.00;2.00;;;;;-145.45;100.00;57426.63;5076713;28;45600;-68
2023/07/13 10:58:00;;;;;;;;;3.00;1.00;;;;;-145.45;100.00;57426.63;5077816;28;45298;-68
2023/07/13 11:00:26;;;;;;;;;3.25;1.25;;;;;-145.45;100.00;57426.63;5077681;28;45350;-68
2023/07/13 11:03:02;;;;;;;;;1.00;1.00;;;;;-145.45;100.00;57426.63;5070247;28;45502;-68
2023/07/13 11:05:31;;;;;;;;;4.00;2.75;;;;;-145.45;100.00;57426.63;5076194;28;45399;-68
2023/07/13 11:08:36;;;;;;;;;2.00;2.00;;;;;-145.45;100.00;57426.63;5065251;28;45392;-68
2023/07/13 11:11:01;;;;;;;;;1.75;1.75;;;;;-145.45;100.00;57426.63;5067241;28;45384;-68
2023/07/13 11:13:45;;;;;;;;;1.50;1.25;;;;;-145.45;100.00;57426.63;5071220;28;45534;-68